Historique des mesures à Cassis (13260), France
Quotidien Résumé Fevrier 4, 2018 Unités:  Métrique    US   Métrique/US
« Précédent (Jour)
Suivant (Jour) »
Quotidien Hebdomadaire Mensuel Annuel Période au choix
  Maximum: Minimum: Moyenne:
Température: -17.8 °C -15.6 °C -13.7 °C
Point de rosée: -17.8 °C -19.8 °C -18.2 °C
Humidité: Humidity % 48 % 53 %
Vitesse du vent: 0 km/h 0 km/h 2.3 km/h
Rafales: 0 km/h - -
Vent:- - ESE
Pression: 0 hPa 34039.5 hPa -
Précipitations: 0 mm    
Historical Graphs
 
 
Mesures pour : Fevrier 4, 2018
Heure Temperature Point de rosée Pression Vent Vitesse du vent Rafales Humidité Pluie (par heure) Conditions
-17.8 °C -17.8 °C 0 hPa Calm     Humidity % 0 mm SoftwareType W/m2
00:12 -14.3 °C -19.3 °C 34039.5 hPa North 12.2 km/h 12.2 km/h 53 % 0 mm open2300-1.11 W/m2
01:12 -14.4 °C -19.5 °C 34063.2 hPa Calm     52 % 0 mm open2300-1.11 W/m2
02:12 -14.7 °C -19.4 °C 34063.2 hPa Calm     55 % 0 mm open2300-1.11 W/m2
03:12 -14.8 °C -19.6 °C 34063.2 hPa NNW 2.3 km/h 2.3 km/h 54 % 0 mm open2300-1.11 W/m2
04:12 -14.7 °C -19.7 °C 34073.3 hPa Calm     52 % 0 mm open2300-1.11 W/m2
05:12 -15.1 °C -19.6 °C 34097 hPa Calm   4.7 km/h 56 % 0 mm open2300-1.11 W/m2
06:12 -14.8 °C -19.6 °C 34097 hPa Calm   4.2 km/h 54 % 0 mm open2300-1.11 W/m2
07:12 -15.4 °C -19.7 °C 34120.7 hPa Calm     58 % 0 mm open2300-1.11 W/m2
08:12 -15.6 °C -19.8 °C 34144.4 hPa Calm     58 % 0 mm open2300-1.11 W/m2
09:12 -14.4 °C -19.1 °C 34154.6 hPa ESE 4.2 km/h 4.2 km/h 55 % 0 mm open2300-1.11 W/m2
10:12 -13.9 °C -19.3 °C 34178.3 hPa NNE 5.1 km/h 10.9 km/h 50 % 0 mm open2300-1.11 W/m2
12:12 -12.3 °C -18.2 °C 34188.4 hPa NE 6.9 km/h 6.9 km/h 48 % 0 mm open2300-1.11 W/m2
13:12 -11.7 °C -17.3 °C 34178.3 hPa SW 19.2 km/h 19.2 km/h 50 % 0 mm open2300-1.11 W/m2
14:12 -11.6 °C -17.1 °C 34164.7 hPa Calm   5.1 km/h 51 % 0 mm open2300-1.11 W/m2
15:12 -11.7 °C -17 °C 34178.3 hPa Calm   11.6 km/h 52 % 0 mm open2300-1.11 W/m2
16:12 -11.7 °C -17 °C 34178.3 hPa ESE 2.9 km/h 2.9 km/h 52 % 0 mm open2300-1.11 W/m2
17:12 -11.9 °C -16.9 °C 34188.4 hPa Calm     54 % 0 mm open2300-1.11 W/m2
18:12 -12.7 °C -16.9 °C 34198.6 hPa Calm     59 % 0 mm open2300-1.11 W/m2
19:12 -13 °C -16.9 °C 34222.3 hPa Calm     61 % 0 mm open2300-1.11 W/m2
20:12 -13.2 °C -17.1 °C 34235.8 hPa Calm     61 % 0 mm open2300-1.11 W/m2
21:12 -12.9 °C -16.9 °C 34222.3 hPa Calm     60 % 0 mm open2300-1.11 W/m2
22:12 -13 °C -16.7 °C 34235.8 hPa Calm     63 % 0 mm open2300-1.11 W/m2
23:12 -12.7 °C -15.9 °C 34235.8 hPa East 2.3 km/h 6.9 km/h 67 % 0 mm open2300-1.11 W/m2
Observations météo à CASSIS
WU-History script by Weather Underground - 1 mb